sensor_id;sensor_type;location;lat;lon;timestamp;P1;durP1;ratioP1;P2;durP2;ratioP2
17524;SDS011;40431;52.198;9.902;2024-03-23T00:55:20;6.83;;;4.80;;
17524;SDS011;40431;52.198;9.902;2024-03-23T00:57:56;5.33;;;4.83;;
17524;SDS011;40431;52.198;9.902;2024-03-23T01:00:30;7.90;;;4.93;;
17524;SDS011;40431;52.198;9.902;2024-03-23T01:03:03;7.43;;;4.87;;
17524;SDS011;40431;52.198;9.902;2024-03-23T01:05:34;7.93;;;4.47;;
17524;SDS011;40431;52.198;9.902;2024-03-23T01:08:21;6.70;;;4.37;;
17524;SDS011;40431;52.198;9.902;2024-03-23T01:10:56;9.13;;;4.83;;
17524;SDS011;40431;52.198;9.902;2024-03-23T01:13:31;7.37;;;5.13;;
17524;SDS011;40431;52.198;9.902;2024-03-23T01:16:08;7.70;;;4.67;;
17524;SDS011;40431;52.198;9.902;2024-03-23T01:18:34;7.50;;;4.83;;
17524;SDS011;40431;52.198;9.902;2024-03-23T01:20:59;7.13;;;5.07;;
17524;SDS011;40431;52.198;9.902;2024-03-23T01:23:27;9.07;;;5.77;;
17524;SDS011;40431;52.198;9.902;2024-03-23T01:25:53;8.23;;;6.30;;
17524;SDS011;40431;52.198;9.902;2024-03-23T01:28:19;7.10;;;5.43;;
17524;SDS011;40431;52.198;9.902;2024-03-23T01:30:45;9.43;;;5.37;;
17524;SDS011;40431;52.198;9.902;2024-03-23T01:33:12;6.17;;;5.10;;
17524;SDS011;40431;52.198;9.902;2024-03-23T01:35:37;8.47;;;5.53;;
17524;SDS011;40431;52.198;9.902;2024-03-23T01:38:04;11.70;;;5.67;;
17524;SDS011;40431;52.198;9.902;2024-03-23T01:40:30;8.20;;;5.10;;
17524;SDS011;40431;52.198;9.902;2024-03-23T01:42:57;8.30;;;5.10;;
17524;SDS011;40431;52.198;9.902;2024-03-23T01:45:23;9.47;;;5.40;;
17524;SDS011;40431;52.198;9.902;2024-03-23T01:47:50;7.20;;;5.00;;
17524;SDS011;40431;52.198;9.902;2024-03-23T01:50:18;7.03;;;5.40;;
17524;SDS011;40431;52.198;9.902;2024-03-23T01:52:53;9.60;;;5.70;;
17524;SDS011;40431;52.198;9.902;2024-03-23T01:55:28;8.87;;;5.40;;
17524;SDS011;40431;52.198;9.902;2024-03-23T01:58:10;9.00;;;5.47;;
17524;SDS011;40431;52.198;9.902;2024-03-23T02:00:48;8.37;;;5.37;;
17524;SDS011;40431;52.198;9.902;2024-03-23T02:03:23;7.93;;;5.60;;
17524;SDS011;40431;52.198;9.902;2024-03-23T02:06:02;8.33;;;5.07;;
17524;SDS011;40431;52.198;9.902;2024-03-23T02:08:43;9.40;;;5.43;;
17524;SDS011;40431;52.198;9.902;2024-03-23T02:11:27;13.60;;;5.67;;
17524;SDS011;40431;52.198;9.902;2024-03-23T02:14:08;8.87;;;5.50;;
17524;SDS011;40431;52.198;9.902;2024-03-23T02:16:43;7.93;;;5.27;;
17524;SDS011;40431;52.198;9.902;2024-03-23T02:19:15;7.93;;;5.73;;
17524;SDS011;40431;52.198;9.902;2024-03-23T02:22:07;8.30;;;5.33;;
17524;SDS011;40431;52.198;9.902;2024-03-23T02:24:44;6.03;;;5.43;;
17524;SDS011;40431;52.198;9.902;2024-03-23T02:27:20;6.13;;;5.17;;
17524;SDS011;40431;52.198;9.902;2024-03-23T02:30:08;7.40;;;5.53;;
17524;SDS011;40431;52.198;9.902;2024-03-23T02:32:46;8.77;;;5.60;;
17524;SDS011;40431;52.198;9.902;2024-03-23T02:35:18;6.87;;;5.13;;
17524;SDS011;40431;52.198;9.902;2024-03-23T02:37:46;9.87;;;5.40;;
17524;SDS011;40431;52.198;9.902;2024-03-23T02:40:27;8.67;;;5.80;;
17524;SDS011;40431;52.198;9.902;2024-03-23T02:43:04;8.40;;;5.60;;
17524;SDS011;40431;52.198;9.902;2024-03-23T02:45:48;8.23;;;5.97;;
17524;SDS011;40431;52.198;9.902;2024-03-23T02:48:27;6.77;;;5.50;;
17524;SDS011;40431;52.198;9.902;2024-03-23T02:51:10;7.57;;;5.77;;
17524;SDS011;40431;52.198;9.902;2024-03-23T02:53:46;6.87;;;4.37;;
17524;SDS011;40431;52.198;9.902;2024-03-23T02:56:20;8.03;;;5.30;;
17524;SDS011;40431;52.198;9.902;2024-03-23T02:59:03;6.17;;;4.60;;
17524;SDS011;40431;52.198;9.902;2024-03-23T03:01:44;5.40;;;4.60;;
17524;SDS011;40431;52.198;9.902;2024-03-23T03:04:25;5.23;;;4.73;;
17524;SDS011;40431;52.198;9.902;2024-03-23T03:07:02;9.13;;;6.23;;
17524;SDS011;40431;52.198;9.902;2024-03-23T03:09:49;8.80;;;5.80;;
17524;SDS011;40431;52.198;9.902;2024-03-23T03:12:38;9.80;;;6.30;;
17524;SDS011;40431;52.198;9.902;2024-03-23T03:15:18;9.53;;;6.57;;
17524;SDS011;40431;52.198;9.902;2024-03-23T03:17:47;7.93;;;6.37;;
17524;SDS011;40431;52.198;9.902;2024-03-23T03:20:40;8.03;;;5.83;;
17524;SDS011;40431;52.198;9.902;2024-03-23T03:23:17;7.50;;;6.07;;
17524;SDS011;40431;52.198;9.902;2024-03-23T03:25:49;8.50;;;6.90;;
17524;SDS011;40431;52.198;9.902;2024-03-23T03:28:30;9.77;;;6.93;;
17524;SDS011;40431;52.198;9.902;2024-03-23T03:31:16;10.07;;;7.10;;
17524;SDS011;40431;52.198;9.902;2024-03-23T03:33:53;8.43;;;7.00;;
17524;SDS011;40431;52.198;9.902;2024-03-23T03:36:34;9.73;;;6.97;;
17524;SDS011;40431;52.198;9.902;2024-03-23T03:39:10;8.67;;;6.10;;
17524;SDS011;40431;52.198;9.902;2024-03-23T03:42:03;7.93;;;7.13;;
17524;SDS011;40431;52.198;9.902;2024-03-23T03:44:59;9.43;;;7.37;;
17524;SDS011;40431;52.198;9.902;2024-03-23T03:47:48;8.07;;;7.07;;
17524;SDS011;40431;52.198;9.902;2024-03-23T03:50:24;9.80;;;7.07;;
17524;SDS011;40431;52.198;9.902;2024-03-23T03:52:59;7.40;;;6.50;;
17524;SDS011;40431;52.198;9.902;2024-03-23T03:55:41;8.43;;;6.33;;
17524;SDS011;40431;52.198;9.902;2024-03-23T03:58:21;7.57;;;5.67;;
17524;SDS011;40431;52.198;9.902;2024-03-23T04:01:04;9.57;;;6.53;;
17524;SDS011;40431;52.198;9.902;2024-03-23T04:03:40;9.07;;;6.10;;
17524;SDS011;40431;52.198;9.902;2024-03-23T04:06:32;8.33;;;6.50;;
17524;SDS011;40431;52.198;9.902;2024-03-23T04:09:56;10.33;;;6.50;;
17524;SDS011;40431;52.198;9.902;2024-03-23T04:12:48;9.13;;;6.03;;
17524;SDS011;40431;52.198;9.902;2024-03-23T04:15:20;8.53;;;6.00;;
17524;SDS011;40431;52.198;9.902;2024-03-23T04:17:48;6.33;;;5.23;;
17524;SDS011;40431;52.198;9.902;2024-03-23T04:20:14;7.50;;;5.97;;
17524;SDS011;40431;52.198;9.902;2024-03-23T04:22:42;6.47;;;5.50;;
17524;SDS011;40431;52.198;9.902;2024-03-23T04:25:07;5.47;;;4.93;;
17524;SDS011;40431;52.198;9.902;2024-03-23T04:27:35;7.30;;;5.53;;
17524;SDS011;40431;52.198;9.902;2024-03-23T04:30:01;6.33;;;5.17;;
17524;SDS011;40431;52.198;9.902;2024-03-23T04:32:29;6.33;;;5.13;;
17524;SDS011;40431;52.198;9.902;2024-03-23T04:34:56;5.27;;;4.73;;
17524;SDS011;40431;52.198;9.902;2024-03-23T04:37:23;7.80;;;5.07;;
17524;SDS011;40431;52.198;9.902;2024-03-23T04:39:49;5.47;;;3.57;;
17524;SDS011;40431;52.198;9.902;2024-03-23T04:42:16;6.80;;;4.27;;
17524;SDS011;40431;52.198;9.902;2024-03-23T04:44:42;6.57;;;4.20;;
17524;SDS011;40431;52.198;9.902;2024-03-23T04:47:08;5.43;;;3.77;;
17524;SDS011;40431;52.198;9.902;2024-03-23T04:49:34;6.60;;;4.13;;
17524;SDS011;40431;52.198;9.902;2024-03-23T04:52:03;4.10;;;3.57;;
17524;SDS011;40431;52.198;9.902;2024-03-23T04:54:30;7.23;;;3.93;;
17524;SDS011;40431;52.198;9.902;2024-03-23T04:56:57;6.47;;;4.07;;
17524;SDS011;40431;52.198;9.902;2024-03-23T04:59:22;7.60;;;4.23;;
17524;SDS011;40431;52.198;9.902;2024-03-23T05:01:49;7.03;;;4.20;;
17524;SDS011;40431;52.198;9.902;2024-03-23T05:04:14;6.47;;;3.93;;
17524;SDS011;40431;52.198;9.902;2024-03-23T05:06:41;7.10;;;4.37;;
17524;SDS011;40431;52.198;9.902;2024-03-23T05:09:07;6.63;;;4.17;;
17524;SDS011;40431;52.198;9.902;2024-03-23T05:11:36;6.67;;;4.33;;
17524;SDS011;40431;52.198;9.902;2024-03-23T05:14:02;5.47;;;3.77;;
17524;SDS011;40431;52.198;9.902;2024-03-23T05:16:29;6.87;;;3.87;;
17524;SDS011;40431;52.198;9.902;2024-03-23T05:18:54;7.13;;;4.20;;
17524;SDS011;40431;52.198;9.902;2024-03-23T05:21:21;6.20;;;4.60;;
17524;SDS011;40431;52.198;9.902;2024-03-23T05:23:46;9.33;;;4.33;;
17524;SDS011;40431;52.198;9.902;2024-03-23T05:26:14;7.20;;;4.40;;
17524;SDS011;40431;52.198;9.902;2024-03-23T05:28:40;7.87;;;4.03;;
17524;SDS011;40431;52.198;9.902;2024-03-23T05:31:06;6.23;;;4.53;;
17524;SDS011;40431;52.198;9.902;2024-03-23T05:33:34;11.10;;;5.07;;
17524;SDS011;40431;52.198;9.902;2024-03-23T05:36:00;8.10;;;4.33;;
17524;SDS011;40431;52.198;9.902;2024-03-23T05:38:26;6.90;;;4.57;;
17524;SDS011;40431;52.198;9.902;2024-03-23T05:40:54;5.53;;;4.20;;
17524;SDS011;40431;52.198;9.902;2024-03-23T05:43:21;8.60;;;5.10;;
17524;SDS011;40431;52.198;9.902;2024-03-23T05:45:52;8.80;;;4.70;;
17524;SDS011;40431;52.198;9.902;2024-03-23T05:48:18;6.17;;;4.13;;
17524;SDS011;40431;52.198;9.902;2024-03-23T05:50:45;9.10;;;4.93;;
17524;SDS011;40431;52.198;9.902;2024-03-23T05:53:10;5.77;;;5.00;;
17524;SDS011;40431;52.198;9.902;2024-03-23T05:55:38;8.43;;;4.33;;
17524;SDS011;40431;52.198;9.902;2024-03-23T05:58:03;6.30;;;4.03;;
17524;SDS011;40431;52.198;9.902;2024-03-23T06:00:31;5.57;;;4.40;;
17524;SDS011;40431;52.198;9.902;2024-03-23T06:02:57;5.77;;;4.43;;
17524;SDS011;40431;52.198;9.902;2024-03-23T06:05:23;9.03;;;3.70;;
17524;SDS011;40431;52.198;9.902;2024-03-23T06:07:49;4.60;;;3.17;;
17524;SDS011;40431;52.198;9.902;2024-03-23T06:10:15;4.17;;;3.37;;
17524;SDS011;40431;52.198;9.902;2024-03-23T06:12:41;6.17;;;3.20;;
17524;SDS011;40431;52.198;9.902;2024-03-23T06:15:08;8.87;;;3.50;;
17524;SDS011;40431;52.198;9.902;2024-03-23T06:17:36;5.17;;;3.60;;
17524;SDS011;40431;52.198;9.902;2024-03-23T06:20:03;4.30;;;3.40;;
17524;SDS011;40431;52.198;9.902;2024-03-23T06:22:31;10.53;;;3.80;;
17524;SDS011;40431;52.198;9.902;2024-03-23T06:24:58;7.73;;;3.43;;
17524;SDS011;40431;52.198;9.902;2024-03-23T06:27:24;9.63;;;3.80;;
17524;SDS011;40431;52.198;9.902;2024-03-23T06:29:50;6.60;;;3.40;;
17524;SDS011;40431;52.198;9.902;2024-03-23T06:32:16;8.40;;;4.13;;
17524;SDS011;40431;52.198;9.902;2024-03-23T06:34:44;7.87;;;4.23;;
17524;SDS011;40431;52.198;9.902;2024-03-23T06:37:11;6.87;;;4.13;;
17524;SDS011;40431;52.198;9.902;2024-03-23T06:39:38;7.20;;;3.93;;
17524;SDS011;40431;52.198;9.902;2024-03-23T06:42:04;10.07;;;4.50;;
17524;SDS011;40431;52.198;9.902;2024-03-23T06:44:31;4.83;;;4.13;;
17524;SDS011;40431;52.198;9.902;2024-03-23T06:46:57;6.27;;;3.97;;
17524;SDS011;40431;52.198;9.902;2024-03-23T06:49:23;7.20;;;3.90;;
17524;SDS011;40431;52.198;9.902;2024-03-23T06:51:50;10.80;;;4.13;;
17524;SDS011;40431;52.198;9.902;2024-03-23T06:54:17;8.13;;;4.07;;
17524;SDS011;40431;52.198;9.902;2024-03-23T06:56:44;7.23;;;4.47;;
17524;SDS011;40431;52.198;9.902;2024-03-23T06:59:10;7.17;;;3.70;;
17524;SDS011;40431;52.198;9.902;2024-03-23T07:01:36;8.10;;;3.17;;
17524;SDS011;40431;52.198;9.902;2024-03-23T07:04:02;7.30;;;3.40;;
17524;SDS011;40431;52.198;9.902;2024-03-23T07:06:29;5.70;;;3.50;;
17524;SDS011;40431;52.198;9.902;2024-03-23T07:08:57;6.60;;;3.43;;
17524;SDS011;40431;52.198;9.902;2024-03-23T07:11:22;5.33;;;3.30;;
17524;SDS011;40431;52.198;9.902;2024-03-23T07:13:49;7.37;;;4.17;;
17524;SDS011;40431;52.198;9.902;2024-03-23T07:16:15;4.77;;;3.40;;
17524;SDS011;40431;52.198;9.902;2024-03-23T07:18:42;6.00;;;4.50;;
17524;SDS011;40431;52.198;9.902;2024-03-23T07:21:08;9.37;;;3.93;;
17524;SDS011;40431;52.198;9.902;2024-03-23T07:23:34;6.57;;;4.13;;
17524;SDS011;40431;52.198;9.902;2024-03-23T07:26:02;6.40;;;3.70;;
17524;SDS011;40431;52.198;9.902;2024-03-23T07:28:30;7.03;;;3.80;;
17524;SDS011;40431;52.198;9.902;2024-03-23T07:31:03;5.63;;;4.13;;
17524;SDS011;40431;52.198;9.902;2024-03-23T07:33:30;6.87;;;3.87;;
17524;SDS011;40431;52.198;9.902;2024-03-23T07:35:56;6.57;;;4.17;;
17524;SDS011;40431;52.198;9.902;2024-03-23T07:38:24;7.83;;;4.73;;
17524;SDS011;40431;52.198;9.902;2024-03-23T07:40:49;5.57;;;4.10;;
17524;SDS011;40431;52.198;9.902;2024-03-23T07:43:21;5.70;;;4.00;;
17524;SDS011;40431;52.198;9.902;2024-03-23T07:45:51;9.70;;;4.70;;
17524;SDS011;40431;52.198;9.902;2024-03-23T07:48:17;7.57;;;4.70;;
17524;SDS011;40431;52.198;9.902;2024-03-23T07:50:43;7.60;;;4.47;;
17524;SDS011;40431;52.198;9.902;2024-03-23T07:53:10;7.53;;;4.73;;
17524;SDS011;40431;52.198;9.902;2024-03-23T07:55:36;10.20;;;4.53;;
17524;SDS011;40431;52.198;9.902;2024-03-23T07:58:04;7.27;;;4.17;;
17524;SDS011;40431;52.198;9.902;2024-03-23T08:00:42;7.53;;;4.43;;
17524;SDS011;40431;52.198;9.902;2024-03-23T08:03:15;6.70;;;4.03;;
17524;SDS011;40431;52.198;9.902;2024-03-23T08:05:43;7.00;;;4.50;;
17524;SDS011;40431;52.198;9.902;2024-03-23T08:08:13;6.40;;;4.50;;
17524;SDS011;40431;52.198;9.902;2024-03-23T08:10:49;11.27;;;5.80;;
17524;SDS011;40431;52.198;9.902;2024-03-23T08:13:19;9.87;;;5.93;;
17524;SDS011;40431;52.198;9.902;2024-03-23T08:15:50;7.73;;;6.47;;
17524;SDS011;40431;52.198;9.902;2024-03-23T08:18:26;10.00;;;5.97;;
17524;SDS011;40431;52.198;9.902;2024-03-23T08:20:56;13.43;;;6.67;;
17524;SDS011;40431;52.198;9.902;2024-03-23T08:23:25;13.27;;;7.50;;
17524;SDS011;40431;52.198;9.902;2024-03-23T08:26:05;16.43;;;8.50;;
17524;SDS011;40431;52.198;9.902;2024-03-23T08:28:52;10.77;;;7.67;;
17524;SDS011;40431;52.198;9.902;2024-03-23T08:31:22;9.87;;;7.57;;
17524;SDS011;40431;52.198;9.902;2024-03-23T08:33:59;9.57;;;6.63;;
17524;SDS011;40431;52.198;9.902;2024-03-23T08:36:36;10.30;;;6.90;;
17524;SDS011;40431;52.198;9.902;2024-03-23T08:39:08;10.93;;;7.20;;
17524;SDS011;40431;52.198;9.902;2024-03-23T08:41:42;10.20;;;7.53;;
17524;SDS011;40431;52.198;9.902;2024-03-23T08:44:24;13.47;;;8.33;;
17524;SDS011;40431;52.198;9.902;2024-03-23T08:46:59;17.83;;;10.57;;
17524;SDS011;40431;52.198;9.902;2024-03-23T08:49:44;12.90;;;9.27;;
17524;SDS011;40431;52.198;9.902;2024-03-23T08:52:18;15.83;;;10.03;;
17524;SDS011;40431;52.198;9.902;2024-03-23T08:54:49;18.53;;;10.83;;
17524;SDS011;40431;52.198;9.902;2024-03-23T08:57:23;16.43;;;10.00;;
17524;SDS011;40431;52.198;9.902;2024-03-23T09:00:07;15.00;;;8.87;;
17524;SDS011;40431;52.198;9.902;2024-03-23T09:03:02;12.13;;;7.83;;
17524;SDS011;40431;52.198;9.902;2024-03-23T09:05:38;15.23;;;8.70;;
17524;SDS011;40431;52.198;9.902;2024-03-23T09:08:15;13.70;;;8.07;;
17524;SDS011;40431;52.198;9.902;2024-03-23T09:10:47;13.47;;;8.20;;
17524;SDS011;40431;52.198;9.902;2024-03-23T09:13:16;16.53;;;8.90;;
17524;SDS011;40431;52.198;9.902;2024-03-23T09:15:45;13.60;;;7.60;;
17524;SDS011;40431;52.198;9.902;2024-03-23T09:18:17;9.13;;;7.10;;
17524;SDS011;40431;52.198;9.902;2024-03-23T09:20:47;14.80;;;6.00;;
17524;SDS011;40431;52.198;9.902;2024-03-23T09:23:15;9.90;;;5.77;;
17524;SDS011;40431;52.198;9.902;2024-03-23T09:25:43;9.60;;;5.87;;
17524;SDS011;40431;52.198;9.902;2024-03-23T09:28:10;13.83;;;6.57;;
17524;SDS011;40431;52.198;9.902;2024-03-23T09:30:42;18.37;;;7.10;;
17524;SDS011;40431;52.198;9.902;2024-03-23T09:33:09;12.43;;;7.30;;
17524;SDS011;40431;52.198;9.902;2024-03-23T09:35:39;12.53;;;6.13;;
17524;SDS011;40431;52.198;9.902;2024-03-23T09:38:08;12.47;;;6.83;;
17524;SDS011;40431;52.198;9.902;2024-03-23T09:40:44;12.17;;;7.50;;
17524;SDS011;40431;52.198;9.902;2024-03-23T09:43:14;14.93;;;6.77;;
17524;SDS011;40431;52.198;9.902;2024-03-23T09:45:43;13.87;;;7.07;;
17524;SDS011;40431;52.198;9.902;2024-03-23T09:48:12;10.17;;;6.27;;
17524;SDS011;40431;52.198;9.902;2024-03-23T09:50:42;11.40;;;5.87;;
17524;SDS011;40431;52.198;9.902;2024-03-23T09:53:13;14.77;;;6.50;;
17524;SDS011;40431;52.198;9.902;2024-03-23T09:55:51;10.90;;;6.40;;
17524;SDS011;40431;52.198;9.902;2024-03-23T09:58:18;13.37;;;6.97;;
17524;SDS011;40431;52.198;9.902;2024-03-23T10:00:46;13.40;;;6.80;;
17524;SDS011;40431;52.198;9.902;2024-03-23T10:03:14;17.00;;;7.70;;
17524;SDS011;40431;52.198;9.902;2024-03-23T10:05:44;10.93;;;6.33;;
17524;SDS011;40431;52.198;9.902;2024-03-23T10:08:18;13.50;;;7.07;;
17524;SDS011;40431;52.198;9.902;2024-03-23T10:10:46;12.67;;;7.37;;
17524;SDS011;40431;52.198;9.902;2024-03-23T10:13:26;15.77;;;6.57;;
17524;SDS011;40431;52.198;9.902;2024-03-23T10:15:57;10.17;;;6.53;;
17524;SDS011;40431;52.198;9.902;2024-03-23T10:18:25;10.63;;;6.80;;
17524;SDS011;40431;52.198;9.902;2024-03-23T10:21:08;12.30;;;5.70;;
17524;SDS011;40431;52.198;9.902;2024-03-23T10:23:36;11.10;;;5.97;;
17524;SDS011;40431;52.198;9.902;2024-03-23T10:26:12;7.83;;;5.47;;
17524;SDS011;40431;52.198;9.902;2024-03-23T10:28:56;11.30;;;4.90;;
17524;SDS011;40431;52.198;9.902;2024-03-23T10:31:30;12.03;;;5.77;;
17524;SDS011;40431;52.198;9.902;2024-03-23T10:34:03;13.03;;;6.17;;
17524;SDS011;40431;52.198;9.902;2024-03-23T10:36:33;9.47;;;4.83;;
17524;SDS011;40431;52.198;9.902;2024-03-23T10:39:06;8.33;;;4.77;;
17524;SDS011;40431;52.198;9.902;2024-03-23T10:41:36;10.67;;;4.93;;
17524;SDS011;40431;52.198;9.902;2024-03-23T10:44:08;9.63;;;5.90;;
17524;SDS011;40431;52.198;9.902;2024-03-23T10:46:40;8.80;;;5.40;;
17524;SDS011;40431;52.198;9.902;2024-03-23T10:49:14;11.17;;;5.40;;
17524;SDS011;40431;52.198;9.902;2024-03-23T10:51:52;7.93;;;5.20;;
17524;SDS011;40431;52.198;9.902;2024-03-23T10:54:21;8.53;;;5.33;;
17524;SDS011;40431;52.198;9.902;2024-03-23T10:56:50;3.90;;;3.27;;
17524;SDS011;40431;52.198;9.902;2024-03-23T10:59:25;3.53;;;2.00;;
17524;SDS011;40431;52.198;9.902;2024-03-23T11:01:57;1.93;;;1.73;;
17524;SDS011;40431;52.198;9.902;2024-03-23T11:04:33;2.80;;;2.00;;
17524;SDS011;40431;52.198;9.902;2024-03-23T11:07:02;3.00;;;2.43;;
17524;SDS011;40431;52.198;9.902;2024-03-23T11:09:39;3.37;;;2.40;;
17524;SDS011;40431;52.198;9.902;2024-03-23T11:12:26;4.07;;;2.50;;
17524;SDS011;40431;52.198;9.902;2024-03-23T11:14:58;4.00;;;2.47;;
17524;SDS011;40431;52.198;9.902;2024-03-23T11:17:27;4.40;;;3.20;;
17524;SDS011;40431;52.198;9.902;2024-03-23T11:19:56;4.90;;;3.23;;
17524;SDS011;40431;52.198;9.902;2024-03-23T11:22:44;5.07;;;3.80;;
17524;SDS011;40431;52.198;9.902;2024-03-23T11:25:16;5.33;;;3.53;;
17524;SDS011;40431;52.198;9.902;2024-03-23T11:27:46;4.77;;;3.80;;
17524;SDS011;40431;52.198;9.902;2024-03-23T11:30:15;5.53;;;4.57;;
17524;SDS011;40431;52.198;9.902;2024-03-23T11:32:51;5.03;;;3.50;;
17524;SDS011;40431;52.198;9.902;2024-03-23T11:35:27;6.73;;;4.10;;
17524;SDS011;40431;52.198;9.902;2024-03-23T11:38:08;5.50;;;3.23;;
17524;SDS011;40431;52.198;9.902;2024-03-23T11:40:44;3.40;;;2.77;;
17524;SDS011;40431;52.198;9.902;2024-03-23T11:43:22;5.53;;;3.37;;
17524;SDS011;40431;52.198;9.902;2024-03-23T11:45:53;4.83;;;3.13;;
17524;SDS011;40431;52.198;9.902;2024-03-23T11:48:26;3.97;;;3.10;;
17524;SDS011;40431;52.198;9.902;2024-03-23T11:51:00;6.40;;;3.33;;
17524;SDS011;40431;52.198;9.902;2024-03-23T11:53:29;4.13;;;3.83;;
17524;SDS011;40431;52.198;9.902;2024-03-23T11:55:58;3.50;;;3.20;;
17524;SDS011;40431;52.198;9.902;2024-03-23T11:58:26;4.23;;;3.57;;
17524;SDS011;40431;52.198;9.902;2024-03-23T12:00:55;4.73;;;3.70;;
17524;SDS011;40431;52.198;9.902;2024-03-23T12:03:23;4.93;;;3.47;;
17524;SDS011;40431;52.198;9.902;2024-03-23T12:05:58;5.70;;;3.90;;
17524;SDS011;40431;52.198;9.902;2024-03-23T12:08:30;4.33;;;3.90;;
17524;SDS011;40431;52.198;9.902;2024-03-23T12:11:07;7.40;;;6.70;;
17524;SDS011;40431;52.198;9.902;2024-03-23T12:16:33;7.90;;;5.27;;
17524;SDS011;40431;52.198;9.902;2024-03-23T12:19:04;6.17;;;3.83;;
17524;SDS011;40431;52.198;9.902;2024-03-23T12:21:33;3.37;;;3.10;;
17524;SDS011;40431;52.198;9.902;2024-03-23T12:27:17;8.57;;;4.00;;
17524;SDS011;40431;52.198;9.902;2024-03-23T12:30:00;6.23;;;3.50;;
17524;SDS011;40431;52.198;9.902;2024-03-23T12:32:27;3.47;;;3.17;;
17524;SDS011;40431;52.198;9.902;2024-03-23T12:34:56;3.07;;;2.80;;
17524;SDS011;40431;52.198;9.902;2024-03-23T12:37:28;4.37;;;3.27;;
17524;SDS011;40431;52.198;9.902;2024-03-23T12:40:08;3.40;;;3.20;;
17524;SDS011;40431;52.198;9.902;2024-03-23T12:42:37;3.63;;;3.30;;
17524;SDS011;40431;52.198;9.902;2024-03-23T12:45:06;4.93;;;3.53;;
17524;SDS011;40431;52.198;9.902;2024-03-23T12:47:34;4.60;;;3.83;;
17524;SDS011;40431;52.198;9.902;2024-03-23T12:50:02;4.73;;;3.83;;
17524;SDS011;40431;52.198;9.902;2024-03-23T12:52:31;4.27;;;3.60;;
17524;SDS011;40431;52.198;9.902;2024-03-23T12:55:00;4.10;;;3.70;;
17524;SDS011;40431;52.198;9.902;2024-03-23T12:57:34;5.33;;;4.50;;
17524;SDS011;40431;52.198;9.902;2024-03-23T13:00:03;3.20;;;2.90;;
17524;SDS011;40431;52.198;9.902;2024-03-23T13:02:32;2.70;;;2.53;;
17524;SDS011;40431;52.198;9.902;2024-03-23T13:04:59;5.70;;;2.70;;
17524;SDS011;40431;52.198;9.902;2024-03-23T13:07:27;2.70;;;2.50;;
17524;SDS011;40431;52.198;9.902;2024-03-23T13:09:53;2.43;;;2.27;;
17524;SDS011;40431;52.198;9.902;2024-03-23T13:12:21;2.53;;;2.33;;
17524;SDS011;40431;52.198;9.902;2024-03-23T13:14:48;2.57;;;2.37;;
17524;SDS011;40431;52.198;9.902;2024-03-23T13:17:15;3.10;;;2.30;;
17524;SDS011;40431;52.198;9.902;2024-03-23T13:19:40;3.10;;;2.80;;
17524;SDS011;40431;52.198;9.902;2024-03-23T13:22:07;2.97;;;2.77;;
17524;SDS011;40431;52.198;9.902;2024-03-23T13:24:33;4.77;;;3.90;;
17524;SDS011;40431;52.198;9.902;2024-03-23T13:27:00;2.63;;;2.43;;
17524;SDS011;40431;52.198;9.902;2024-03-23T13:29:25;3.43;;;2.70;;
17524;SDS011;40431;52.198;9.902;2024-03-23T13:31:53;3.20;;;2.90;;
17524;SDS011;40431;52.198;9.902;2024-03-23T13:34:19;2.63;;;2.43;;
17524;SDS011;40431;52.198;9.902;2024-03-23T13:36:45;2.97;;;2.67;;
17524;SDS011;40431;52.198;9.902;2024-03-23T13:39:12;2.87;;;2.20;;
17524;SDS011;40431;52.198;9.902;2024-03-23T13:41:41;3.50;;;2.70;;
17524;SDS011;40431;52.198;9.902;2024-03-23T13:44:07;3.27;;;2.93;;
17524;SDS011;40431;52.198;9.902;2024-03-23T13:46:35;3.80;;;3.50;;
17524;SDS011;40431;52.198;9.902;2024-03-23T13:49:02;3.90;;;3.20;;
17524;SDS011;40431;52.198;9.902;2024-03-23T13:51:29;4.57;;;3.00;;
17524;SDS011;40431;52.198;9.902;2024-03-23T13:53:54;2.97;;;2.70;;
17524;SDS011;40431;52.198;9.902;2024-03-23T13:56:22;3.03;;;2.73;;
17524;SDS011;40431;52.198;9.902;2024-03-23T13:58:50;3.00;;;2.67;;
17524;SDS011;40431;52.198;9.902;2024-03-23T14:01:19;3.70;;;2.83;;
17524;SDS011;40431;52.198;9.902;2024-03-23T14:04:03;3.80;;;3.00;;
17524;SDS011;40431;52.198;9.902;2024-03-23T14:06:57;3.20;;;2.90;;
17524;SDS011;40431;52.198;9.902;2024-03-23T14:09:33;4.50;;;3.40;;
17524;SDS011;40431;52.198;9.902;2024-03-23T14:12:01;5.10;;;3.67;;
17524;SDS011;40431;52.198;9.902;2024-03-23T14:14:29;4.87;;;3.43;;
17524;SDS011;40431;52.198;9.902;2024-03-23T14:16:57;3.73;;;3.43;;
17524;SDS011;40431;52.198;9.902;2024-03-23T14:19:25;3.50;;;3.20;;
17524;SDS011;40431;52.198;9.902;2024-03-23T14:21:53;3.43;;;3.23;;
17524;SDS011;40431;52.198;9.902;2024-03-23T14:24:20;3.70;;;3.40;;
17524;SDS011;40431;52.198;9.902;2024-03-23T14:26:47;4.47;;;3.30;;
17524;SDS011;40431;52.198;9.902;2024-03-23T14:29:15;3.83;;;3.00;;
17524;SDS011;40431;52.198;9.902;2024-03-23T14:31:43;3.30;;;3.00;;
17524;SDS011;40431;52.198;9.902;2024-03-23T14:34:11;3.67;;;2.90;;
17524;SDS011;40431;52.198;9.902;2024-03-23T14:36:41;2.60;;;2.50;;
17524;SDS011;40431;52.198;9.902;2024-03-23T14:39:07;2.57;;;2.37;;
17524;SDS011;40431;52.198;9.902;2024-03-23T14:41:38;1.57;;;1.57;;
17524;SDS011;40431;52.198;9.902;2024-03-23T14:44:05;1.97;;;1.87;;
17524;SDS011;40431;52.198;9.902;2024-03-23T14:46:35;1.93;;;1.83;;
17524;SDS011;40431;52.198;9.902;2024-03-23T14:49:02;1.90;;;1.80;;
17524;SDS011;40431;52.198;9.902;2024-03-23T14:51:33;3.00;;;2.70;;
17524;SDS011;40431;52.198;9.902;2024-03-23T14:54:05;2.10;;;1.90;;
17524;SDS011;40431;52.198;9.902;2024-03-23T14:56:35;2.10;;;2.00;;
17524;SDS011;40431;52.198;9.902;2024-03-23T14:59:14;1.90;;;1.80;;
17524;SDS011;40431;52.198;9.902;2024-03-23T15:01:47;2.13;;;1.83;;
17524;SDS011;40431;52.198;9.902;2024-03-23T15:04:14;1.23;;;1.23;;
17524;SDS011;40431;52.198;9.902;2024-03-23T15:06:50;1.57;;;1.53;;
17524;SDS011;40431;52.198;9.902;2024-03-23T15:09:22;1.30;;;1.30;;
17524;SDS011;40431;52.198;9.902;2024-03-23T15:11:51;1.70;;;1.60;;
17524;SDS011;40431;52.198;9.902;2024-03-23T15:14:29;2.00;;;1.47;;
17524;SDS011;40431;52.198;9.902;2024-03-23T15:17:29;3.20;;;1.80;;
17524;SDS011;40431;52.198;9.902;2024-03-23T15:20:08;1.80;;;1.70;;
17524;SDS011;40431;52.198;9.902;2024-03-23T15:22:37;2.20;;;2.00;;
17524;SDS011;40431;52.198;9.902;2024-03-23T15:25:06;1.50;;;1.40;;
17524;SDS011;40431;52.198;9.902;2024-03-23T15:27:35;2.10;;;1.90;;
17524;SDS011;40431;52.198;9.902;2024-03-23T15:30:13;1.90;;;1.63;;
17524;SDS011;40431;52.198;9.902;2024-03-23T15:33:06;2.23;;;2.03;;
17524;SDS011;40431;52.198;9.902;2024-03-23T15:35:42;1.63;;;1.50;;
17524;SDS011;40431;52.198;9.902;2024-03-23T15:38:18;2.00;;;1.90;;
17524;SDS011;40431;52.198;9.902;2024-03-23T15:40:51;2.27;;;2.17;;
17524;SDS011;40431;52.198;9.902;2024-03-23T15:43:19;2.53;;;2.10;;
17524;SDS011;40431;52.198;9.902;2024-03-23T15:45:57;3.37;;;2.23;;
17524;SDS011;40431;52.198;9.902;2024-03-23T15:48:33;2.30;;;2.10;;
17524;SDS011;40431;52.198;9.902;2024-03-23T15:51:01;3.23;;;2.37;;
17524;SDS011;40431;52.198;9.902;2024-03-23T15:53:30;2.73;;;2.10;;
17524;SDS011;40431;52.198;9.902;2024-03-23T15:56:05;3.03;;;2.27;;
17524;SDS011;40431;52.198;9.902;2024-03-23T15:58:42;2.93;;;2.50;;
17524;SDS011;40431;52.198;9.902;2024-03-23T16:01:09;2.60;;;2.40;;
17524;SDS011;40431;52.198;9.902;2024-03-23T16:03:37;2.60;;;2.40;;
17524;SDS011;40431;52.198;9.902;2024-03-23T16:06:04;2.80;;;2.60;;
17524;SDS011;40431;52.198;9.902;2024-03-23T16:08:34;3.17;;;2.43;;
17524;SDS011;40431;52.198;9.902;2024-03-23T16:11:03;3.77;;;2.80;;
17524;SDS011;40431;52.198;9.902;2024-03-23T16:13:32;2.70;;;2.30;;